Farmington ASC Data

Date Time Air Temperature Relative Humidity Dewpoint Windchill Heat Index Wind Speed Wind Dir. Rain Solar Radiation Soil Temperature
2m 2m 3m 3m 10cm
US/Mountain F % F F F MPH deg in MJ/m^2 F
max avg avg
2021-04-08 00:05:00 41.2 19.7 2.8 41.2 41.2 2.4 3.1 2.7 101.6 74.4 0.00 0.0000000 50.1
2021-04-08 00:10:00 41.1 19.7 2.7 41.1 41.1 2.4 2.6 2.2 73.9 78.6 0.00 0.0000000 50.0
2021-04-08 00:15:00 41.3 19.4 2.5 41.3 41.3 2.1 3.1 2.3 62.1 60.7 0.00 0.0000000 49.9
2021-04-08 00:20:00 42.1 19.2 3.0 42.1 42.1 2.6 3.0 2.4 67.0 67.4 0.00 0.0000000 49.9
2021-04-08 00:25:00 42.8 19.6 4.0 42.8 42.8 1.9 2.6 2.1 63.4 59.3 0.00 0.0000000 49.8
2021-04-08 00:30:00 43.4 19.6 4.5 43.4 43.4 1.9 2.2 1.8 85.8 52.5 0.00 0.0000000 49.7
2021-04-08 00:35:00 44.3 19.1 4.6 44.3 44.3 1.7 2.8 1.9 95.6 68.0 0.00 0.0000000 49.7
2021-04-08 00:40:00 45.4 18.7 5.1 45.4 45.4 2.2 2.2 1.8 91.7 88.3 0.00 0.0000000 49.6
2021-04-08 00:45:00 46.0 18.2 5.0 46.0 46.0 2.1 2.4 1.9 83.1 89.7 0.00 0.0000000 49.6
2021-04-08 00:50:00 46.2 18.4 5.5 46.2 46.2 3.0 3.0 2.4 118.6 105.0 0.00 0.0000000 49.5
2021-04-08 00:55:00 45.1 19.1 5.4 44.0 45.1 3.1 3.3 2.6 74.5 95.7 0.00 0.0000000 49.5
2021-04-08 01:00:00 43.7 20.0 5.2 43.7 43.7 2.8 3.5 2.7 79.1 84.5 0.00 0.0000000 49.4
2021-04-08 01:05:00 42.4 21.0 5.1 42.4 42.4 2.1 2.8 2.2 70.6 76.0 0.00 0.0000000 49.4
2021-04-08 01:10:00 41.4 21.9 5.3 41.4 41.4 2.4 3.3 2.8 74.4 70.1 0.00 0.0000000 49.4
2021-04-08 01:15:00 40.6 22.2 4.9 40.6 40.6 2.2 2.6 2.1 74.3 77.9 0.00 0.0000000 49.3
2021-04-08 01:20:00 40.2 22.1 4.5 40.2 40.2 2.2 3.1 2.5 74.5 72.1 0.00 0.0000000 49.2
2021-04-08 01:25:00 40.5 22.0 4.6 40.5 40.5 1.9 2.6 1.9 81.2 81.8 0.00 0.0000000 49.2
2021-04-08 01:30:00 40.1 22.6 4.8 40.1 40.1 2.4 2.6 2.2 77.4 75.4 0.00 0.0000000 49.1
2021-04-08 01:35:00 40.5 22.0 4.6 40.5 40.5 2.1 2.2 1.8 88.6 77.2 0.00 0.0000000 49.1
2021-04-08 01:40:00 40.8 23.7 6.5 40.8 40.8 1.5 2.4 1.9 192.9 94.9 0.00 0.0000000 49.0
2021-04-08 01:45:00 40.0 22.9 5.0 40.0 40.0 0.0 3.0 1.6 85.0 121.9 0.00 0.0000000 48.9
2021-04-08 01:50:00 39.5 26.6 7.9 35.9 39.5 4.9 4.9 1.7 308.8 337.0 0.00 0.0000000 48.9
2021-04-08 01:55:00 36.8 31.2 9.1 36.8 36.8 1.0 5.1 3.1 257.1 265.1 0.00 0.0000000 48.8
2021-04-08 02:00:00 36.7 33.2 10.4 36.7 36.7 1.7 3.3 2.1 31.8 231.2 0.00 0.0000000 48.8
2021-04-08 02:05:00 35.9 31.2 8.4 35.9 35.9 2.8 3.3 2.5 70.7 97.7 0.00 0.0000000 48.7
2021-04-08 02:10:00 36.1 29.4 7.2 33.1 36.1 3.7 3.7 2.9 72.0 75.1 0.00 0.0000000 48.7
2021-04-08 02:15:00 35.7 28.3 6.0 32.7 35.7 3.7 3.8 3.1 80.1 75.1 0.00 0.0000000 48.6
2021-04-08 02:20:00 35.0 30.0 6.7 35.0 35.0 2.4 3.8 3.1 75.7 72.6 0.00 0.0000000 48.5
2021-04-08 02:25:00 34.8 29.5 6.1 34.8 34.8 1.9 2.6 2.0 61.8 76.9 0.00 0.0000000 48.5
2021-04-08 02:30:00 35.2 28.7 5.8 35.2 35.2 1.5 2.8 2.1 77.1 76.8 0.00 0.0000000 48.4
2021-04-08 02:35:00 35.5 28.4 5.9 35.5 35.5 2.1 2.2 1.8 72.0 75.6 0.00 0.0000000 48.3
2021-04-08 02:40:00 35.8 27.1 5.1 35.8 35.8 2.6 2.8 2.3 97.5 77.7 0.00 0.0000000 48.3
2021-04-08 02:45:00 36.6 26.0 4.9 36.6 36.6 2.8 3.0 2.7 94.6 103.8 0.00 0.0000000 48.2
2021-04-08 02:50:00 36.1 26.6 5.0 36.1 36.1 2.4 2.6 2.1 87.7 85.0 0.00 0.0000000 48.1
2021-04-08 02:55:00 36.0 27.1 5.2 33.6 36.0 3.1 3.3 2.6 95.0 84.6 0.00 0.0000000 48.1
2021-04-08 03:00:00 36.4 26.8 5.4 36.4 36.4 2.6 3.8 3.1 79.0 82.7 0.00 0.0000000 48.0
2021-04-08 03:05:00 36.7 27.0 5.8 34.2 36.7 3.3 4.4 3.2 66.7 67.7 0.00 0.0000000 47.9
2021-04-08 03:10:00 37.9 26.2 6.2 35.8 37.9 3.1 4.0 3.1 56.1 64.1 0.00 0.0000000 47.9
2021-04-08 03:15:00 37.7 26.1 6.0 37.7 37.7 1.7 3.5 2.6 75.1 72.4 0.00 0.0000000 47.8
2021-04-08 03:20:00 37.9 25.0 5.2 37.9 37.9 1.5 2.4 1.9 80.8 88.5 0.00 0.0000000 47.8
2021-04-08 03:25:00 38.0 24.6 4.9 38.0 38.0 2.4 2.6 1.6 83.5 82.1 0.00 0.0000000 47.7
2021-04-08 03:30:00 37.4 25.4 5.0 35.2 37.4 3.1 3.7 2.8 75.0 70.4 0.00 0.0000000 47.6
2021-04-08 03:35:00 37.7 25.0 5.0 37.7 37.7 2.4 2.8 2.0 155.8 66.1 0.00 0.0000000 47.6
2021-04-08 03:40:00 38.0 26.1 6.2 36.0 38.0 3.1 3.1 2.0 251.2 60.0 0.00 0.0000000 47.5
2021-04-08 03:45:00 36.7 27.2 6.0 36.7 36.7 1.7 4.7 2.7 192.8 257.7 0.00 0.0000000 47.4
2021-04-08 03:50:00 35.8 29.6 7.1 33.0 35.8 3.5 3.5 1.6 158.1 194.8 0.00 0.0000000 47.4
2021-04-08 03:55:00 33.9 34.3 8.6 30.6 33.9 3.7 6.5 4.9 18.0 127.8 0.00 0.0000000 47.3
2021-04-08 04:00:00 36.0 27.8 5.8 31.5 36.0 5.3 5.3 3.6 120.7 43.4 0.00 0.0000000 47.3
2021-04-08 04:05:00 36.6 26.2 5.1 36.6 36.6 2.1 6.9 4.7 49.9 101.5 0.00 0.0000000 47.2
2021-04-08 04:10:00 37.4 24.7 4.5 35.0 37.4 3.3 4.6 3.1 142.7 74.0 0.00 0.0000000 47.2
2021-04-08 04:15:00 36.6 25.8 4.7 36.6 36.6 2.2 3.5 2.5 71.1 79.4 0.00 0.0000000 47.1
2021-04-08 04:20:00 35.7 26.2 4.3 33.3 35.7 3.1 3.8 2.9 53.7 65.4 0.00 0.0000000 47.0
2021-04-08 04:25:00 36.5 25.5 4.4 36.5 36.5 2.8 3.8 3.1 68.5 61.9 0.00 0.0000000 47.0
2021-04-08 04:30:00 36.1 25.7 4.2 36.1 36.1 2.4 3.5 2.8 45.9 57.8 0.00 0.0000000 47.0
2021-04-08 04:35:00 36.2 25.1 3.8 36.2 36.2 2.6 3.5 2.8 72.1 57.5 0.00 0.0000000 46.9
2021-04-08 04:40:00 36.5 24.2 3.3 36.5 36.5 2.6 3.5 2.5 47.8 60.7 0.00 0.0000000 46.9
2021-04-08 04:45:00 37.2 23.5 3.3 37.2 37.2 1.9 3.1 2.4 76.5 58.1 0.00 0.0000000 46.8
2021-04-08 04:50:00 37.1 23.5 3.1 37.1 37.1 3.0 3.0 2.4 44.2 68.9 0.00 0.0000000 46.7
2021-04-08 04:55:00 36.9 23.8 3.2 36.9 36.9 2.2 4.7 2.8 80.8 76.3 0.00 0.0000000 46.7
2021-04-08 05:00:00 37.4 23.6 3.5 37.4 37.4 2.2 3.7 2.6 44.0 76.9 0.00 0.0000000 46.7
2021-04-08 05:05:00 37.7 23.3 3.4 37.7 37.7 2.1 3.8 2.8 59.4 67.4 0.00 0.0000000 46.6
2021-04-08 05:10:00 37.9 23.0 3.3 34.2 37.9 4.7 4.7 2.6 59.6 54.7 0.00 0.0000000 46.6
2021-04-08 05:15:00 38.2 23.3 3.9 38.2 38.2 2.8 4.7 3.2 96.8 75.9 0.00 0.0000000 46.5
2021-04-08 05:20:00 37.6 24.2 4.1 37.6 37.6 2.4 3.5 2.6 72.0 53.2 0.00 0.0000000 46.5
2021-04-08 05:25:00 36.8 25.0 4.2 36.8 36.8 3.0 3.0 2.1 49.2 63.9 0.00 0.0000000 46.4
2021-04-08 05:30:00 36.2 25.2 3.9 36.2 36.2 1.7 3.5 2.7 117.3 66.8 0.00 0.0000000 46.4
2021-04-08 05:35:00 36.6 24.9 4.0 36.6 36.6 2.1 3.3 2.2 99.4 82.7 0.00 0.0000000 46.3
2021-04-08 05:40:00 36.3 25.4 4.1 34.0 36.3 3.1 3.7 2.6 60.7 97.9 0.00 0.0000000 46.3
2021-04-08 05:45:00 35.7 25.8 3.9 35.7 35.7 2.6 2.8 2.5 65.4 77.8 0.00 0.0000000 46.2
2021-04-08 05:50:00 35.4 26.1 3.9 35.4 35.4 2.4 2.8 2.0 73.5 74.7 0.00 0.0000000 46.2
2021-04-08 05:55:00 35.1 24.4 2.2 35.1 35.1 2.4 3.0 2.4 57.2 75.9 0.00 0.0000000 46.2
2021-04-08 06:00:00 36.3 23.2 2.1 36.3 36.3 1.7 2.8 1.8 60.1 60.7 0.00 0.0000000 46.1
2021-04-08 06:05:00 37.0 23.3 2.8 37.0 37.0 2.2 2.8 1.9 40.1 100.8 0.00 0.0000000 46.1
2021-04-08 06:10:00 36.9 23.9 3.3 36.9 36.9 1.9 2.2 1.8 7.6 68.6 0.00 0.0000000 46.0
2021-04-08 06:15:00 37.5 23.1 3.1 33.2 37.5 5.5 5.5 3.6 42.8 30.9 0.00 0.0000000 46.0
2021-04-08 06:20:00 38.6 23.5 4.4 38.6 38.6 1.9 4.9 3.2 109.3 94.3 0.00 0.0000000 45.9
2021-04-08 06:25:00 38.1 23.6 4.1 38.1 38.1 2.4 2.8 2.0 11.6 45.8 0.00 0.0000000 45.9
2021-04-08 06:30:00 38.7 22.3 3.3 38.7 38.7 2.1 3.0 2.4 92.0 56.2 0.00 0.0000000 45.8
2021-04-08 06:35:00 39.0 23.1 4.4 39.0 39.0 2.1 3.0 2.1 62.1 46.1 0.00 0.0010000 45.8
2021-04-08 06:40:00 38.3 23.8 4.4 38.3 38.3 2.1 3.0 2.3 59.0 60.1 0.00 0.0010000 45.8
2021-04-08 06:45:00 36.8 25.7 4.8 36.8 36.8 2.8 3.1 2.4 67.5 87.3 0.00 0.0030000 45.7
2021-04-08 06:50:00 35.4 27.4 5.0 31.9 35.4 4.0 4.2 3.3 105.4 89.4 0.00 0.0050000 45.7
2021-04-08 06:55:00 34.3 28.9 5.2 34.3 34.3 3.0 4.6 3.7 72.5 93.2 0.00 0.0080000 45.6
2021-04-08 07:00:00 34.4 28.0 4.7 34.4 34.4 3.0 3.8 3.1 88.6 90.5 0.00 0.0110000 45.6
2021-04-08 07:05:00 34.6 29.3 5.8 31.9 34.6 3.3 3.3 2.5 59.1 76.2 0.00 0.0160000 45.5
2021-04-08 07:10:00 35.0 27.6 4.8 31.9 35.0 3.7 4.0 3.2 62.0 58.3 0.00 0.0220000 45.5
2021-04-08 07:15:00 36.0 27.3 5.4 32.3 36.0 4.4 4.9 4.0 37.0 64.8 0.00 0.0240000 45.5
2021-04-08 07:20:00 36.7 26.4 5.4 33.6 36.7 3.8 4.6 3.5 59.4 58.4 0.00 0.0330000 45.4
2021-04-08 07:25:00 37.3 25.8 5.3 37.3 37.3 2.6 3.3 2.3 56.9 62.3 0.00 0.0660000 45.4
2021-04-08 07:30:00 37.9 25.0 5.2 37.9 37.9 2.2 3.7 2.6 51.2 64.8 0.00 0.0680000 45.4
2021-04-08 07:35:00 39.5 24.9 6.5 39.5 39.5 1.2 3.0 2.2 92.9 98.5 0.00 0.1010000 45.3
2021-04-08 07:40:00 40.5 23.6 6.1 40.5 40.5 2.1 3.0 2.2 59.3 61.9 0.00 0.1280000 45.3
2021-04-08 07:45:00 42.2 22.2 6.2 42.2 42.2 3.0 3.0 2.0 86.9 51.2 0.00 0.1390000 45.3
2021-04-08 07:50:00 43.9 21.7 7.2 43.9 43.9 1.9 3.3 2.3 61.0 41.5 0.00 0.1420000 45.2
2021-04-08 07:55:00 44.8 20.2 6.3 44.8 44.8 2.2 3.3 2.1 51.1 33.8 0.00 0.1820000 45.2
2021-04-08 08:00:00 46.6 20.6 8.3 46.6 46.6 2.2 3.0 1.7 327.9 31.6 0.00 0.1980000 45.2
2021-04-08 08:05:00 48.0 20.1 8.9 48.0 48.0 2.1 3.0 2.3 52.5 54.3 0.00 0.2160000 45.2
2021-04-08 08:10:00 48.7 18.6 7.8 48.7 48.7 2.6 4.6 2.4 27.0 38.0 0.00 0.2340000 45.2
2021-04-08 08:15:00 49.8 17.0 6.7 49.8 49.8 1.9 3.5 2.3 94.1 57.4 0.00 0.2490000 45.2
2021-04-08 08:20:00 50.7 17.2 7.7 50.7 50.7 2.6 3.5 2.1 100.3 54.2 0.00 0.2670000 45.2
2021-04-08 08:25:00 51.8 15.8 6.6 51.8 51.8 2.8 4.0 2.7 30.8 64.9 0.00 0.2860000 45.2
2021-04-08 08:30:00 52.4 15.9 7.3 52.4 52.4 2.6 4.2 2.6 57.4 68.6 0.00 0.3020000 45.2
2021-04-08 08:35:00 53.2 17.0 9.4 53.2 53.2 2.6 3.8 2.2 27.6 63.5 0.00 0.3210000 45.3
2021-04-08 08:40:00 53.8 15.9 8.5 53.8 53.8 2.2 3.5 2.6 15.2 55.3 0.00 0.3380000 45.3
2021-04-08 08:45:00 54.4 15.8 8.8 54.4 54.4 2.2 3.7 2.6 65.6 68.1 0.00 0.3530000 45.3
2021-04-08 08:50:00 55.5 15.9 9.8 55.5 55.5 4.0 4.0 2.1 46.6 46.8 0.00 0.3720000 45.4
2021-04-08 08:55:00 54.8 15.6 8.8 54.8 54.8 2.8 5.5 3.4 83.8 79.4 0.00 0.3880000 45.4
2021-04-08 09:00:00 55.9 17.6 12.4 55.9 55.9 1.9 3.3 2.3 26.1 68.4 0.00 0.4120000 45.4
2021-04-08 09:05:00 56.2 17.1 12.0 56.2 56.2 3.1 4.2 2.8 8.6 40.8 0.00 0.4420000 45.5
2021-04-08 09:10:00 55.5 18.2 12.9 55.5 55.5 2.6 4.4 3.4 173.5 156.5 0.00 0.4760000 45.5
2021-04-08 09:15:00 56.0 17.7 12.7 56.0 56.0 3.0 3.5 2.8 178.8 188.6 0.00 0.5070000 45.6
2021-04-08 09:20:00 56.8 15.0 9.6 56.8 56.8 1.7 4.0 2.6 197.4 187.4 0.00 0.5100000 45.7
2021-04-08 09:25:00 58.0 16.2 12.3 58.0 58.0 2.1 4.0 2.7 210.9 143.7 0.00 0.5250000 45.8
2021-04-08 09:30:00 58.4 18.9 16.1 58.4 58.4 4.2 5.1 2.1 311.1 261.4 0.00 0.5380000 45.9
2021-04-08 09:35:00 57.6 16.0 11.7 57.6 57.6 3.7 4.9 3.3 16.2 9.9 0.00 0.5720000 46.0
2021-04-08 09:40:00 57.9 17.6 14.1 57.9 57.9 3.5 4.9 3.5 109.7 41.2 0.00 0.5880000 46.1
2021-04-08 09:45:00 58.8 16.6 13.5 58.8 58.8 3.3 4.7 3.1 4.2 36.8 0.00 0.5020000 46.2
2021-04-08 09:50:00 57.8 16.8 13.0 57.8 57.8 2.8 5.8 3.7 331.9 7.2 0.00 0.4060000 46.3
2021-04-08 09:55:00 58.3 15.7 11.8 58.3 58.3 2.8 3.1 2.3 5.7 321.6 0.00 0.5940000 46.4
2021-04-08 10:00:00 59.0 16.2 13.1 59.0 59.0 5.5 5.8 3.5 218.4 219.3 0.00 0.6720000 46.5
2021-04-08 10:05:00 59.7 17.0 14.8 59.7 59.7 2.1 6.0 2.8 236.9 230.6 0.00 0.6550000 46.7
2021-04-08 10:10:00 60.5 15.6 13.5 60.5 60.5 3.0 4.6 3.0 191.0 220.6 0.00 0.6450000 46.8
2021-04-08 10:15:00 60.5 14.0 11.0 60.5 60.5 5.1 6.5 3.7 208.9 215.8 0.00 0.5680000 46.9
2021-04-08 10:20:00 60.2 12.8 8.8 60.2 60.2 3.7 6.5 4.0 270.1 220.9 0.00 0.7760000 47.0
2021-04-08 10:25:00 61.3 14.6 12.6 61.3 61.3 4.7 4.7 2.9 250.8 245.3 0.00 0.7240000 47.2
2021-04-08 10:30:00 61.8 14.0 12.0 61.8 61.8 5.1 6.0 3.2 176.0 216.9 0.00 0.6310000 47.3
2021-04-08 10:35:00 60.6 12.3 8.2 60.6 60.6 4.4 8.3 4.6 162.8 204.8 0.00 0.3700000 47.5
2021-04-08 10:40:00 62.0 15.0 13.7 62.0 62.0 2.4 4.6 2.9 231.5 207.6 0.00 0.7640000 47.7
2021-04-08 10:45:00 61.8 16.6 15.9 61.8 61.8 6.5 6.5 4.6 305.2 283.2 0.00 0.6490000 47.9
2021-04-08 10:50:00 62.1 12.2 9.2 62.1 62.1 5.3 7.6 5.4 287.1 279.1 0.00 0.7440000 48.1
2021-04-08 10:55:00 61.3 14.2 12.0 61.3 61.3 6.9 9.6 7.1 278.6 244.3 0.00 0.4540000 48.3
2021-04-08 11:00:00 62.2 14.1 12.5 62.2 62.2 2.8 7.1 3.3 224.9 274.8 0.00 0.7410000 48.5
2021-04-08 11:05:00 62.5 13.7 12.1 62.5 62.5 3.8 7.4 4.1 237.9 263.7 0.00 0.7560000 48.7
2021-04-08 11:10:00 62.3 12.9 10.6 62.3 62.3 6.0 9.7 6.1 251.2 234.0 0.00 0.7600000 48.9
2021-04-08 11:15:00 62.8 12.8 10.8 62.8 62.8 7.4 7.4 4.9 255.6 236.5 0.00 0.7720000 49.1
2021-04-08 11:20:00 62.8 12.8 10.8 62.8 62.8 4.6 7.8 5.6 292.2 269.6 0.00 0.7940000 49.3
2021-04-08 11:25:00 63.0 13.2 11.7 63.0 63.0 6.5 8.8 6.2 283.2 260.0 0.00 0.7850000 49.5
2021-04-08 11:30:00 63.1 14.9 14.5 63.1 63.1 6.0 9.2 6.1 324.0 327.8 0.00 0.8460000 49.7
2021-04-08 11:35:00 63.8 11.8 9.8 63.8 63.8 7.8 8.5 5.5 265.9 299.0 0.00 0.6760000 50.0
2021-04-08 11:40:00 63.8 11.5 9.2 63.8 63.8 6.7 7.8 5.4 255.0 291.1 0.00 0.7170000 50.2
2021-04-08 11:45:00 64.4 12.9 12.2 64.4 64.4 8.8 9.2 6.5 295.9 296.2 0.00 0.8310000 50.4
2021-04-08 11:50:00 64.4 12.2 11.0 64.4 64.4 8.8 9.0 6.8 265.0 289.1 0.00 0.8320000 50.7
2021-04-08 11:55:00 64.5 12.2 11.2 64.5 64.5 7.6 10.8 7.3 260.6 281.2 0.00 0.8500000 50.9
2021-04-08 12:00:00 64.9 13.9 14.5 64.9 64.9 5.3 8.3 5.7 329.8 306.6 0.00 0.8380000 51.1
2021-04-08 12:05:00 64.9 11.7 10.5 64.9 64.9 9.6 11.3 7.3 266.5 278.7 0.00 0.8450000 51.4
2021-04-08 12:10:00 65.8 11.6 11.0 65.8 65.8 9.2 13.0 8.5 264.3 278.9 0.00 0.8490000 51.6
2021-04-08 12:15:00 65.0 14.5 15.3 65.0 65.0 6.3 12.6 9.4 311.1 288.9 0.00 0.8520000 51.9
2021-04-08 12:20:00 65.2 14.2 15.2 65.2 65.2 6.7 13.0 8.2 284.9 287.1 0.00 0.8580000 52.1
2021-04-08 12:25:00 65.6 12.8 13.0 65.6 65.6 10.5 13.3 8.9 313.1 310.6 0.00 0.8620000 52.3
2021-04-08 12:30:00 65.7 11.7 11.1 65.7 65.7 7.4 14.9 9.2 291.7 300.1 0.00 0.8650000 52.6
2021-04-08 12:35:00 65.7 12.7 12.9 65.7 65.7 7.1 11.0 7.7 235.5 289.8 0.00 0.8700000 52.8
2021-04-08 12:40:00 66.3 12.1 12.3 66.3 66.3 8.1 11.5 6.9 280.2 301.7 0.00 0.8730000 53.0
2021-04-08 12:45:00 66.4 13.7 15.2 66.4 66.4 8.0 10.8 7.4 297.2 289.6 0.00 0.8770000 53.3
2021-04-08 12:50:00 66.3 13.4 14.5 66.3 66.3 5.3 10.6 7.2 320.8 276.6 0.00 0.8780000 53.5
2021-04-08 12:55:00 67.2 11.8 12.5 67.2 67.2 9.4 11.9 6.1 265.9 275.2 0.00 0.8810000 53.7
2021-04-08 13:00:00 67.3 12.9 14.6 67.3 67.3 11.9 14.2 9.2 252.3 255.3 0.00 0.8820000 53.9
2021-04-08 13:05:00 67.0 11.5 11.7 67.0 67.0 13.0 14.4 10.1 279.3 275.3 0.00 0.8810000 54.2
2021-04-08 13:10:00 67.3 12.2 13.3 67.3 67.3 5.3 11.0 8.3 278.9 287.2 0.00 0.8830000 54.4
2021-04-08 13:15:00 66.7 11.4 11.2 66.7 66.7 6.9 10.5 6.5 250.4 255.2 0.00 0.8840000 54.6
2021-04-08 13:20:00 67.7 12.6 14.3 67.7 67.7 8.7 15.6 11.6 276.4 263.5 0.00 0.8840000 54.8
2021-04-08 13:25:00 67.5 14.1 16.7 67.5 67.5 6.7 10.6 7.1 249.7 300.2 0.00 0.8850000 55.1
2021-04-08 13:30:00 68.1 13.5 16.2 68.1 68.1 4.7 15.1 9.3 331.3 274.1 0.00 0.8820000 55.3
2021-04-08 13:35:00 68.1 12.0 13.6 68.1 68.1 9.7 13.0 8.3 259.4 268.3 0.00 0.8800000 55.5
2021-04-08 13:40:00 68.2 11.5 12.6 68.2 68.2 8.5 15.5 11.5 310.3 256.6 0.00 0.8780000 55.7
2021-04-08 13:45:00 68.3 11.2 12.1 68.3 68.3 8.8 13.3 7.5 258.3 239.9 0.00 0.8760000 55.9
2021-04-08 13:50:00 68.7 10.9 11.9 68.7 68.7 9.6 13.1 8.9 260.7 292.8 0.00 0.8760000 56.1
2021-04-08 13:55:00 70.0 12.3 15.6 70.0 70.0 8.1 11.0 8.8 235.2 267.4 0.00 0.8750000 56.3
2021-04-08 14:00:00 69.8 11.9 14.8 69.8 69.8 12.8 14.4 10.4 311.9 269.9 0.00 0.8800000 56.4
2021-04-08 14:05:00 68.4 12.2 14.1 68.4 68.4 5.6 14.2 8.1 271.4 277.7 0.00 0.8670000 56.6
2021-04-08 14:10:00 69.5 13.8 17.8 69.5 69.5 7.8 16.9 10.3 289.1 273.1 0.00 0.8690000 56.8
2021-04-08 14:15:00 69.1 12.3 14.9 69.1 69.1 9.4 13.3 10.1 271.8 292.4 0.00 0.8600000 57.0
2021-04-08 14:20:00 69.3 12.9 16.2 69.3 69.3 7.8 13.3 7.9 281.8 300.0 0.00 0.8530000 57.1
2021-04-08 14:25:00 69.3 11.9 14.2 69.3 69.3 6.9 13.7 8.9 222.1 257.6 0.00 0.8490000 57.3
2021-04-08 14:30:00 69.9 11.1 13.2 69.9 69.9 13.7 13.7 8.7 288.2 273.9 0.00 0.8430000 57.5
2021-04-08 14:35:00 70.4 11.9 15.1 70.4 70.4 12.8 14.6 8.7 307.8 251.2 0.00 0.8370000 57.6
2021-04-08 14:40:00 70.5 11.2 13.7 70.5 70.5 11.3 18.0 12.0 274.2 288.7 0.00 0.8370000 57.7
2021-04-08 14:45:00 70.9 11.0 13.6 70.9 70.9 11.0 15.1 10.9 316.5 302.4 0.00 0.8320000 57.8
2021-04-08 14:50:00 70.5 13.1 17.3 70.5 70.5 6.9 15.3 11.6 329.0 301.8 0.00 0.8240000 58.0
2021-04-08 14:55:00 71.0 11.6 15.0 71.0 71.0 17.2 17.2 12.5 331.8 299.6 0.00 0.8120000 58.1
2021-04-08 15:00:00 70.2 12.0 15.2 70.2 70.2 8.5 15.5 12.1 243.0 298.8 0.00 0.8040000 58.2
2021-04-08 15:05:00 70.4 11.9 15.2 70.4 70.4 6.3 13.1 9.7 297.4 292.3 0.00 0.7960000 58.3
2021-04-08 15:10:00 70.4 12.1 15.6 70.4 70.4 8.0 16.5 11.7 287.1 270.8 0.00 0.8000000 58.4
2021-04-08 15:15:00 71.5 11.3 14.8 71.5 71.5 15.6 18.7 12.3 286.3 284.8 0.00 0.7910000 58.5
2021-04-08 15:20:00 71.2 11.4 14.7 71.2 71.2 9.6 16.7 12.4 276.2 281.0 0.00 0.8220000 58.6
2021-04-08 15:25:00 70.6 11.7 14.8 70.6 70.6 9.0 18.9 12.2 278.3 262.7 0.00 0.2590000 58.7
2021-04-08 15:30:00 71.3 11.8 15.7 71.3 71.3 11.9 19.8 12.6 291.1 287.3 0.00 0.6010000 58.7
2021-04-08 15:35:00 70.8 11.3 14.2 70.8 70.8 8.0 16.5 11.4 289.0 296.3 0.00 0.8270000 58.8
2021-04-08 15:40:00 71.3 12.1 16.3 71.3 71.3 7.8 17.2 10.9 296.3 296.4 0.00 0.8060000 58.8
2021-04-08 15:45:00 71.5 12.0 16.2 71.5 71.5 11.7 13.9 9.5 258.9 277.4 0.00 0.7890000 58.9
2021-04-08 15:50:00 70.7 11.5 14.5 70.7 70.7 14.7 14.7 11.1 303.8 292.6 0.00 0.5630000 58.9
2021-04-08 15:55:00 70.7 11.3 14.2 70.7 70.7 14.0 14.2 10.2 297.7 297.3 0.00 0.3760000 58.9
2021-04-08 16:00:00 69.6 12.1 14.8 69.6 69.6 8.7 15.8 11.3 324.6 297.7 0.00 0.7680000 59.0
2021-04-08 16:05:00 69.5 11.9 14.4 69.5 69.5 7.2 10.5 8.2 320.4 291.9 0.00 0.7700000 59.0
2021-04-08 16:10:00 69.9 12.2 15.4 69.9 69.9 9.9 15.8 11.3 282.2 293.9 0.00 0.3560000 59.0
2021-04-08 16:15:00 70.6 11.7 14.8 70.6 70.6 10.8 14.2 9.9 298.8 308.3 0.00 0.4330000 59.0
2021-04-08 16:20:00 70.3 12.0 15.2 70.3 70.3 11.2 20.1 11.8 317.5 301.3 0.00 0.3280000 59.0
2021-04-08 16:25:00 69.6 12.0 14.7 69.6 69.6 10.1 13.0 8.9 294.5 300.6 0.00 0.2320000 59.0
2021-04-08 16:30:00 70.2 12.3 15.8 70.2 70.2 8.5 13.3 8.6 301.4 285.3 0.00 0.5600000 59.0
2021-04-08 16:35:00 70.0 12.3 15.6 70.0 70.0 11.9 15.8 11.2 324.5 305.8 0.00 0.3260000 58.9
2021-04-08 16:40:00 69.0 12.4 15.0 69.0 69.0 8.7 14.0 9.9 276.5 308.1 0.00 0.2290000 58.9
2021-04-08 16:45:00 69.1 12.3 15.0 69.1 69.1 12.2 13.0 10.7 280.5 304.9 0.00 0.5060000 58.9
2021-04-08 16:50:00 69.2 12.7 15.7 69.2 69.2 11.0 16.0 11.0 320.0 301.5 0.00 0.2170000 58.8
2021-04-08 16:55:00 68.7 13.1 16.0 68.7 68.7 6.9 16.2 9.3 0.1 315.6 0.00 0.1990000 58.8
2021-04-08 17:00:00 68.7 12.9 15.6 68.7 68.7 7.4 16.4 8.2 282.4 305.4 0.00 0.1800000 58.7
2021-04-08 17:05:00 68.7 12.3 14.5 68.7 68.7 14.4 15.1 8.9 318.6 299.8 0.00 0.1980000 58.7
2021-04-08 17:10:00 68.6 12.5 14.8 68.6 68.6 11.2 16.2 10.8 277.9 304.8 0.00 0.1390000 58.7
2021-04-08 17:15:00 68.4 12.9 15.5 68.4 68.4 9.0 13.5 9.7 301.6 291.9 0.00 0.1790000 58.6
2021-04-08 17:20:00 68.5 13.1 15.9 68.5 68.5 12.6 16.4 9.8 282.6 283.3 0.00 0.1550000 58.6
2021-04-08 17:25:00 68.1 12.6 14.7 68.1 68.1 9.7 14.6 9.6 288.3 297.1 0.00 0.1240000 58.5
2021-04-08 17:30:00 68.0 12.7 14.7 68.0 68.0 9.7 11.9 8.1 296.8 302.8 0.00 0.1790000 58.4
2021-04-08 17:35:00 68.2 12.7 15.0 68.2 68.2 8.7 13.3 9.0 302.9 304.0 0.00 0.1770000 58.4
2021-04-08 17:40:00 68.1 12.7 14.8 68.1 68.1 9.6 12.8 8.6 312.8 307.6 0.00 0.1730000 58.3
2021-04-08 17:45:00 68.2 12.3 14.1 68.2 68.2 14.0 14.6 10.0 306.9 298.1 0.00 0.2120000 58.2
2021-04-08 17:50:00 69.8 12.0 14.9 69.8 69.8 10.6 17.1 11.1 314.7 304.4 0.00 0.4480000 58.2
2021-04-08 17:55:00 69.4 11.6 13.7 69.4 69.4 13.5 19.2 12.0 307.5 303.8 0.00 0.1720000 58.1
2021-04-08 18:00:00 68.0 12.5 14.4 68.0 68.0 9.9 16.2 10.2 295.4 296.9 0.00 0.0940000 58.1
2021-04-08 18:05:00 67.7 12.3 13.9 67.7 67.7 13.1 16.2 11.8 299.9 296.7 0.00 0.1020000 58.0
2021-04-08 18:10:00 67.4 12.3 13.6 67.4 67.4 14.0 18.7 12.6 279.9 301.5 0.00 0.1270000 57.9
2021-04-08 18:15:00 67.4 12.9 14.6 67.4 67.4 9.9 17.8 11.3 322.0 304.0 0.00 0.2750000 57.8
2021-04-08 18:20:00 68.8 12.4 14.8 68.8 68.8 8.8 17.8 10.7 297.4 307.7 0.00 0.3130000 57.8
2021-04-08 18:25:00 68.0 12.5 14.4 68.0 68.0 10.1 14.0 10.8 294.0 296.1 0.00 0.0670000 57.7
2021-04-08 18:30:00 66.7 13.2 14.6 66.7 66.7 9.6 11.3 8.7 299.0 304.3 0.00 0.0580000 57.6
2021-04-08 18:35:00 66.7 13.2 14.5 66.7 66.7 8.8 12.6 9.2 324.9 300.2 0.00 0.0650000 57.5
2021-04-08 18:40:00 66.0 13.1 13.9 66.0 66.0 6.0 11.9 7.7 319.6 304.7 0.00 0.0530000 57.5
2021-04-08 18:45:00 65.9 13.0 13.6 65.9 65.9 8.3 11.0 8.1 331.6 305.5 0.00 0.0530000 57.4
2021-04-08 18:50:00 66.2 12.4 12.8 66.2 66.2 10.1 14.9 10.8 287.5 300.5 0.00 0.0640000 57.3
2021-04-08 18:55:00 66.2 12.5 12.9 66.2 66.2 7.1 11.7 8.7 304.9 298.0 0.00 0.0600000 57.2
2021-04-08 19:00:00 66.1 12.8 13.5 66.1 66.1 10.5 13.7 8.1 312.0 298.1 0.00 0.0480000 57.2
2021-04-08 19:05:00 66.0 13.0 13.7 66.0 66.0 16.0 24.9 14.8 296.5 302.0 0.00 0.0290000 57.1
2021-04-08 19:10:00 65.7 12.3 12.2 65.7 65.7 9.7 12.6 8.6 280.9 295.1 0.00 0.0360000 57.0
2021-04-08 19:15:00 65.1 12.4 11.8 65.1 65.1 7.2 10.8 7.3 286.0 297.6 0.00 0.0340000 56.9
2021-04-08 19:20:00 65.4 12.5 12.3 65.4 65.4 6.7 14.2 9.1 315.8 303.9 0.00 0.0330000 56.9
2021-04-08 19:25:00 64.8 12.0 11.0 64.8 64.8 6.5 11.5 8.6 306.5 299.0 0.00 0.0150000 56.8
2021-04-08 19:30:00 63.9 12.3 10.8 63.9 63.9 6.0 9.9 6.9 289.0 299.0 0.00 0.0110000 56.7
2021-04-08 19:35:00 63.4 12.6 11.0 63.4 63.4 4.4 8.1 6.1 327.5 301.1 0.00 0.0090000 56.6
2021-04-08 19:40:00 63.4 12.3 10.4 63.4 63.4 6.9 12.4 7.7 274.8 298.0 0.00 0.0050000 56.5
2021-04-08 19:45:00 63.3 12.1 10.0 63.3 63.3 8.1 10.6 7.0 298.2 289.5 0.00 0.0030000 56.4
2021-04-08 19:50:00 62.5 12.4 9.8 62.5 62.5 8.0 9.4 6.4 320.8 299.2 0.00 0.0010000 56.3
2021-04-08 19:55:00 62.5 12.1 9.3 62.5 62.5 6.5 11.0 7.8 300.2 302.5 0.00 0.0010000 56.3
2021-04-08 20:00:00 62.4 12.4 9.7 62.4 62.4 4.2 9.2 6.3 302.6 303.6 0.00 0.0000000 56.2
2021-04-08 20:05:00 61.6 12.7 9.6 61.6 61.6 3.8 5.3 4.3 306.8 305.0 0.00 0.0000000 56.1
2021-04-08 20:10:00 61.1 12.9 9.6 61.1 61.1 6.0 6.5 5.1 314.3 304.5 0.00 0.0000000 56.0
2021-04-08 20:15:00 60.8 13.4 10.2 60.8 60.8 4.0 7.2 5.2 290.2 304.4 0.00 0.0000000 55.9
2021-04-08 20:20:00 60.0 13.6 10.0 60.0 60.0 3.3 4.2 3.3 303.1 303.4 0.00 0.0000000 55.8
2021-04-08 20:25:00 59.5 13.5 9.4 59.5 59.5 3.0 4.0 2.8 297.9 291.8 0.00 0.0000000 55.7
2021-04-08 20:30:00 59.2 13.8 9.6 59.2 59.2 1.9 2.6 2.2 279.7 313.2 0.00 0.0000000 55.6
2021-04-08 20:35:00 58.8 14.0 9.7 58.8 58.8 1.5 3.0 1.8 298.0 303.1 0.00 0.0000000 55.5
2021-04-08 20:40:00 58.5 14.1 9.6 58.5 58.5 1.5 3.3 1.9 319.7 310.2 0.00 0.0000000 55.4
2021-04-08 20:45:00 58.5 14.6 10.4 58.5 58.5 1.7 3.3 2.0 333.2 301.1 0.00 0.0000000 55.3
2021-04-08 20:50:00 58.2 14.9 10.7 58.2 58.2 1.0 1.9 1.4 249.1 251.5 0.00 0.0000000 55.2
2021-04-08 20:55:00 57.6 14.7 9.8 57.6 57.6 0.0 0.8 0.3 169.6 197.2 0.00 0.0000000 55.1
2021-04-08 21:00:00 57.9 14.5 9.6 57.9 57.9 1.5 2.1 0.9 83.6 107.0 0.00 0.0000000 55.0
2021-04-08 21:05:00 56.9 15.0 9.7 56.9 56.9 2.1 2.2 1.6 132.0 139.8 0.00 0.0000000 54.9
2021-04-08 21:10:00 55.3 15.9 9.7 55.3 55.3 2.6 2.6 2.2 138.8 143.7 0.00 0.0000000 54.8
2021-04-08 21:15:00 55.4 16.3 10.2 55.4 55.4 2.1 2.6 1.9 178.5 160.4 0.00 0.0000000 54.7
2021-04-08 21:20:00 54.9 16.9 10.7 54.9 54.9 2.2 2.2 1.7 180.1 162.1 0.00 0.0000000 54.6
2021-04-08 21:25:00 53.1 18.8 11.6 53.1 53.1 2.8 3.7 3.1 114.3 145.0 0.00 0.0000000 54.5
2021-04-08 21:30:00 51.7 19.6 11.4 51.7 51.7 3.0 4.2 3.0 112.0 131.9 0.00 0.0000000 54.4
2021-04-08 21:35:00 50.7 21.0 12.1 50.7 50.7 1.9 3.5 2.6 108.3 118.7 0.00 0.0000000 54.3
2021-04-08 21:40:00 50.1 22.4 13.1 50.1 50.1 3.0 4.9 3.3 117.5 123.3 0.00 0.0000000 54.1
2021-04-08 21:45:00 48.5 24.7 14.0 48.5 48.5 2.6 4.4 3.2 162.6 126.7 0.00 0.0000000 54.1
2021-04-08 21:50:00 48.0 27.1 15.6 45.8 48.0 5.1 6.2 4.8 147.7 141.7 0.00 0.0000000 53.9
2021-04-08 21:55:00 47.9 27.2 15.6 46.4 47.9 4.0 5.3 4.6 142.5 149.7 0.00 0.0000000 53.8
2021-04-08 22:00:00 47.4 29.5 17.2 46.6 47.4 3.1 4.9 4.2 147.5 144.5 0.00 0.0000000 53.8
2021-04-08 22:05:00 47.9 27.3 15.8 47.0 47.9 3.3 5.5 4.0 155.0 147.5 0.00 0.0000000 53.7
2021-04-08 22:10:00 49.1 25.8 15.5 48.1 49.1 3.7 3.7 3.2 110.7 126.2 0.00 0.0000000 53.6
2021-04-08 22:15:00 48.4 24.9 14.0 47.5 48.4 3.3 4.6 3.8 102.2 110.7 0.00 0.0000000 53.5
2021-04-08 22:20:00 47.2 26.0 14.0 45.5 47.2 4.0 4.2 3.7 118.4 125.5 0.00 0.0000000 53.4
2021-04-08 22:25:00 47.1 24.7 12.7 46.2 47.1 3.1 4.2 3.5 116.7 106.7 0.00 0.0000000 53.3
2021-04-08 22:30:00 47.2 24.8 12.9 47.2 47.2 3.0 3.8 3.1 137.5 121.7 0.00 0.0000000 53.2
2021-04-08 22:35:00 46.6 25.4 13.0 46.6 46.6 1.5 3.0 2.1 290.2 134.7 0.00 0.0000000 53.1
2021-04-08 22:40:00 48.3 23.9 13.0 48.3 48.3 2.4 3.1 2.1 336.5 294.7 0.00 0.0000000 53.0
2021-04-08 22:45:00 49.7 22.9 13.3 49.7 49.7 1.5 3.0 1.9 225.9 292.4 0.00 0.0000000 53.0
2021-04-08 22:50:00 50.1 22.4 13.0 50.1 50.1 0.8 2.4 0.9 9.4 281.9 0.00 0.0000000 52.9
2021-04-08 22:55:00 50.8 21.1 12.4 50.8 50.8 3.1 3.1 1.8 6.6 327.0 0.00 0.0000000 52.8
2021-04-08 23:00:00 52.4 21.2 13.7 52.4 52.4 3.3 4.7 3.1 291.8 343.5 0.00 0.0000000 52.7
2021-04-08 23:05:00 51.1 23.8 15.3 51.1 51.1 1.5 3.7 2.5 139.1 44.5 0.00 0.0000000 52.6
2021-04-08 23:10:00 49.8 22.5 12.9 49.8 49.8 2.8 3.0 2.3 36.6 57.6 0.00 0.0000000 52.5
2021-04-08 23:15:00 50.8 21.0 12.3 50.8 50.8 3.0 4.2 2.7 63.7 26.2 0.00 0.0000000 52.4
2021-04-08 23:20:00 51.8 19.4 11.3 51.8 51.8 3.3 5.3 3.3 334.2 357.5 0.00 0.0000000 52.4
2021-04-08 23:25:00 51.7 19.9 11.7 51.7 51.7 1.3 4.2 2.4 14.0 356.9 0.00 0.0000000 52.3
2021-04-08 23:30:00 51.9 21.6 13.8 51.9 51.9 2.8 5.8 3.1 304.3 307.8 0.00 0.0000000 52.2
2021-04-08 23:35:00 51.4 20.3 12.0 51.4 51.4 3.8 4.4 2.4 291.5 316.9 0.00 0.0000000 52.1
2021-04-08 23:40:00 51.3 20.9 12.5 51.3 51.3 1.3 3.5 1.7 321.1 291.3 0.00 0.0000000 52.1
2021-04-08 23:45:00 50.9 21.5 12.8 50.9 50.9 2.1 2.6 1.8 226.2 247.7 0.00 0.0000000 52.0
2021-04-08 23:50:00 48.9 23.8 13.4 48.9 48.9 1.3 3.3 2.6 221.7 231.2 0.00 0.0000000 51.9
2021-04-08 23:55:00 47.9 23.9 12.7 47.9 47.9 1.5 2.4 1.6 218.4 214.8 0.00 0.0000000 51.8
2021-04-09 00:00:00 47.2 23.6 11.8 46.0 47.2 3.5 3.8 2.4 256.6 243.4 0.00 0.0000000 51.8

Data is courtesy of the NM Climate Center. DO NOT USE IN LEGAL PROCEEDINGS.